Winder, Georgia
Current Conditions -  °F | °C
As of 8:10 PM on Tuesday 21 Oct 2014 (Local Time) from KWDR Reporting Station
Clear Clear  
Wind Chill: 65°   Ceiling: Unl
Heat Index: 65°   Visibility: 10mi
Dew Point: 51°   Wind: 9mph
Humidity: 62%   Direction: 300°WNW
Pressure: 30.01"   Gusts: NA
Location:  33.99°N, 83.72°W
Report Text: KWDR 220010Z AUTO 30008KT 10SM CLR 18/11 A3001 RMK AO2 T01810106
Loading
Personal Weather Stations






























Interactive Weather Map
Tropical Storm Tracking
New forecast layout! Learn more

10-Day Weather Forecast

Advertisements
Track Severe Weather on mobile